sensor_id;sensor_type;location;lat;lon;timestamp;pressure;altitude;pressure_sealevel;temperature;humidity
72024;BME280;59889;50.700;5.440;2022-10-22T00:01:40;99424.00;;;23.45;39.57
72024;BME280;59889;50.700;5.440;2022-10-22T00:04:06;99422.06;;;23.42;39.60
72024;BME280;59889;50.700;5.440;2022-10-22T00:06:31;99420.89;;;23.45;39.58
72024;BME280;59889;50.700;5.440;2022-10-22T00:08:55;99422.47;;;23.47;39.52
72024;BME280;59889;50.700;5.440;2022-10-22T00:11:20;99420.80;;;23.57;39.70
72024;BME280;59889;50.700;5.440;2022-10-22T00:13:46;99421.39;;;23.34;39.67
72024;BME280;59889;50.700;5.440;2022-10-22T00:16:11;99419.08;;;23.42;39.59
72024;BME280;59889;50.700;5.440;2022-10-22T00:18:36;99421.26;;;23.47;39.52
72024;BME280;59889;50.700;5.440;2022-10-22T00:21:01;99425.79;;;23.41;39.58
72024;BME280;59889;50.700;5.440;2022-10-22T00:23:26;99426.32;;;23.96;39.47
72024;BME280;59889;50.700;5.440;2022-10-22T00:25:52;99428.86;;;23.48;39.48
72024;BME280;59889;50.700;5.440;2022-10-22T00:28:16;99432.96;;;23.49;39.45
72024;BME280;59889;50.700;5.440;2022-10-22T00:30:41;99431.36;;;23.69;39.49
72024;BME280;59889;50.700;5.440;2022-10-22T00:33:06;99431.28;;;23.50;39.42
72024;BME280;59889;50.700;5.440;2022-10-22T00:35:31;99435.28;;;23.43;39.52
72024;BME280;59889;50.700;5.440;2022-10-22T00:37:56;99435.73;;;23.44;39.49
72024;BME280;59889;50.700;5.440;2022-10-22T00:40:21;99431.85;;;23.69;39.49
72024;BME280;59889;50.700;5.440;2022-10-22T00:42:46;99430.69;;;23.49;39.41
72024;BME280;59889;50.700;5.440;2022-10-22T00:45:20;99432.68;;;23.46;39.45
72024;BME280;59889;50.700;5.440;2022-10-22T00:47:38;99430.56;;;23.99;39.38
72024;BME280;59889;50.700;5.440;2022-10-22T00:50:02;99431.61;;;23.51;39.37
72024;BME280;59889;50.700;5.440;2022-10-22T00:52:27;99433.23;;;23.49;39.39
72024;BME280;59889;50.700;5.440;2022-10-22T00:54:51;99434.90;;;23.52;39.33
72024;BME280;59889;50.700;5.440;2022-10-22T00:57:17;99431.43;;;23.43;39.47
72024;BME280;59889;50.700;5.440;2022-10-22T00:59:41;99429.48;;;23.45;39.44
72024;BME280;59889;50.700;5.440;2022-10-22T01:02:06;99431.27;;;23.41;39.49
72024;BME280;59889;50.700;5.440;2022-10-22T01:04:31;99432.68;;;23.45;39.43
72024;BME280;59889;50.700;5.440;2022-10-22T01:06:56;99434.47;;;23.21;39.41
72024;BME280;59889;50.700;5.440;2022-10-22T01:09:26;99441.22;;;23.42;39.46
72024;BME280;59889;50.700;5.440;2022-10-22T01:11:53;99442.91;;;23.47;39.38
72024;BME280;59889;50.700;5.440;2022-10-22T01:14:18;99442.22;;;23.90;39.43
72024;BME280;59889;50.700;5.440;2022-10-22T01:16:40;99443.58;;;23.46;39.37
72024;BME280;59889;50.700;5.440;2022-10-22T01:19:12;99449.58;;;23.46;39.36
72024;BME280;59889;50.700;5.440;2022-10-22T01:21:31;99448.82;;;23.49;39.32
72024;BME280;59889;50.700;5.440;2022-10-22T01:24:11;99447.61;;;23.45;39.38
72024;BME280;59889;50.700;5.440;2022-10-22T01:26:23;99448.70;;;23.50;39.29
72024;BME280;59889;50.700;5.440;2022-10-22T01:28:50;99449.25;;;23.50;39.28
72024;BME280;59889;50.700;5.440;2022-10-22T01:31:08;99448.41;;;23.94;39.33
72024;BME280;59889;50.700;5.440;2022-10-22T01:33:32;99445.95;;;22.95;39.38
72024;BME280;59889;50.700;5.440;2022-10-22T01:35:57;99440.79;;;23.41;39.40
72024;BME280;59889;50.700;5.440;2022-10-22T01:38:22;99432.32;;;23.32;39.52
72024;BME280;59889;50.700;5.440;2022-10-22T01:40:47;99425.86;;;23.21;39.31
72024;BME280;59889;50.700;5.440;2022-10-22T01:43:12;99431.29;;;23.35;39.45
72024;BME280;59889;50.700;5.440;2022-10-22T01:45:39;99440.39;;;23.19;39.35
72024;BME280;59889;50.700;5.440;2022-10-22T01:48:12;99445.39;;;23.34;39.51
72024;BME280;59889;50.700;5.440;2022-10-22T01:50:35;99441.11;;;23.44;39.33
72024;BME280;59889;50.700;5.440;2022-10-22T01:53:06;99438.60;;;23.47;39.26
72024;BME280;59889;50.700;5.440;2022-10-22T01:55:23;99439.46;;;23.47;39.25
72024;BME280;59889;50.700;5.440;2022-10-22T01:57:45;99438.57;;;23.45;39.29
72024;BME280;59889;50.700;5.440;2022-10-22T02:00:09;99437.58;;;23.63;39.34
72024;BME280;59889;50.700;5.440;2022-10-22T02:02:36;99436.22;;;23.39;39.34
72024;BME280;59889;50.700;5.440;2022-10-22T02:04:59;99437.25;;;23.40;39.33
72024;BME280;59889;50.700;5.440;2022-10-22T02:07:26;99438.80;;;23.32;39.44
72024;BME280;59889;50.700;5.440;2022-10-22T02:09:48;99441.20;;;23.45;39.26
72024;BME280;59889;50.700;5.440;2022-10-22T02:12:12;99435.98;;;23.41;39.29
72024;BME280;59889;50.700;5.440;2022-10-22T02:14:40;99437.42;;;23.37;39.36
72024;BME280;59889;50.700;5.440;2022-10-22T02:17:03;99433.31;;;23.36;39.34
72024;BME280;59889;50.700;5.440;2022-10-22T02:19:32;99435.57;;;23.67;39.26
72024;BME280;59889;50.700;5.440;2022-10-22T02:21:52;99437.32;;;23.42;39.26
72024;BME280;59889;50.700;5.440;2022-10-22T02:24:18;99436.87;;;23.37;39.31
72024;BME280;59889;50.700;5.440;2022-10-22T02:26:46;99436.70;;;23.11;39.34
72024;BME280;59889;50.700;5.440;2022-10-22T02:29:12;99439.29;;;23.47;39.18
72024;BME280;59889;50.700;5.440;2022-10-22T02:31:35;99440.85;;;23.29;39.42
72024;BME280;59889;50.700;5.440;2022-10-22T02:34:01;99440.00;;;23.31;39.40
72024;BME280;59889;50.700;5.440;2022-10-22T02:36:23;99436.95;;;23.56;39.36
72024;BME280;59889;50.700;5.440;2022-10-22T02:38:48;99438.58;;;23.84;39.30
72024;BME280;59889;50.700;5.440;2022-10-22T02:41:13;99444.07;;;23.37;39.29
72024;BME280;59889;50.700;5.440;2022-10-22T02:43:40;99453.74;;;23.58;39.33
72024;BME280;59889;50.700;5.440;2022-10-22T02:46:02;99460.70;;;23.34;39.33
72024;BME280;59889;50.700;5.440;2022-10-22T02:48:27;99461.84;;;23.35;39.32
72024;BME280;59889;50.700;5.440;2022-10-22T02:50:52;99459.88;;;23.80;39.34
72024;BME280;59889;50.700;5.440;2022-10-22T02:53:17;99456.53;;;23.29;39.39
72024;BME280;59889;50.700;5.440;2022-10-22T02:55:42;99461.94;;;23.35;39.29
72024;BME280;59889;50.700;5.440;2022-10-22T02:58:07;99464.06;;;23.53;39.39
72024;BME280;59889;50.700;5.440;2022-10-22T03:00:32;99460.80;;;23.36;39.25
72024;BME280;59889;50.700;5.440;2022-10-22T03:02:57;99461.01;;;23.21;39.48
72024;BME280;59889;50.700;5.440;2022-10-22T03:05:22;99458.70;;;23.50;39.39
72024;BME280;59889;50.700;5.440;2022-10-22T03:07:47;99459.04;;;23.50;39.39
72024;BME280;59889;50.700;5.440;2022-10-22T03:10:13;99469.86;;;23.43;39.47
72024;BME280;59889;50.700;5.440;2022-10-22T03:12:37;99474.29;;;23.19;39.50
72024;BME280;59889;50.700;5.440;2022-10-22T03:15:03;99476.20;;;23.24;39.41
72024;BME280;59889;50.700;5.440;2022-10-22T03:17:28;99481.22;;;23.25;39.40
72024;BME280;59889;50.700;5.440;2022-10-22T03:19:53;99482.31;;;23.49;39.39
72024;BME280;59889;50.700;5.440;2022-10-22T03:22:21;99484.07;;;23.28;39.32
72024;BME280;59889;50.700;5.440;2022-10-22T03:24:45;99483.02;;;23.22;39.41
72024;BME280;59889;50.700;5.440;2022-10-22T03:27:08;99481.24;;;23.17;39.48
72024;BME280;59889;50.700;5.440;2022-10-22T03:29:36;99485.39;;;23.17;39.45
72024;BME280;59889;50.700;5.440;2022-10-22T03:31:58;99486.18;;;23.46;39.40
72024;BME280;59889;50.700;5.440;2022-10-22T03:34:23;99487.82;;;23.50;39.33
72024;BME280;59889;50.700;5.440;2022-10-22T03:36:48;99487.98;;;23.26;39.33
72024;BME280;59889;50.700;5.440;2022-10-22T03:39:14;99495.55;;;23.42;39.45
72024;BME280;59889;50.700;5.440;2022-10-22T03:41:38;99496.87;;;23.22;39.37
72024;BME280;59889;50.700;5.440;2022-10-22T03:44:04;99501.16;;;23.25;39.33
72024;BME280;59889;50.700;5.440;2022-10-22T03:46:28;99505.82;;;23.14;39.48
72024;BME280;59889;50.700;5.440;2022-10-22T03:48:53;99504.46;;;23.54;39.25
72024;BME280;59889;50.700;5.440;2022-10-22T03:51:18;99509.36;;;23.49;39.32
72024;BME280;59889;50.700;5.440;2022-10-22T03:53:43;99516.39;;;23.28;39.24
72024;BME280;59889;50.700;5.440;2022-10-22T03:56:09;99522.09;;;23.28;39.26
72024;BME280;59889;50.700;5.440;2022-10-22T03:58:33;99527.30;;;23.48;39.30
72024;BME280;59889;50.700;5.440;2022-10-22T04:01:03;99532.76;;;23.26;39.28
72024;BME280;59889;50.700;5.440;2022-10-22T04:03:23;99534.38;;;23.18;39.39
72024;BME280;59889;50.700;5.440;2022-10-22T04:05:48;99536.44;;;23.25;39.25
72024;BME280;59889;50.700;5.440;2022-10-22T04:08:13;99536.69;;;23.28;39.23
72024;BME280;59889;50.700;5.440;2022-10-22T04:10:38;99537.06;;;23.23;39.29
72024;BME280;59889;50.700;5.440;2022-10-22T04:13:03;99533.96;;;23.52;39.20
72024;BME280;59889;50.700;5.440;2022-10-22T04:15:28;99538.31;;;23.71;39.27
72024;BME280;59889;50.700;5.440;2022-10-22T04:17:54;99537.93;;;23.23;39.26
72024;BME280;59889;50.700;5.440;2022-10-22T04:20:18;99539.73;;;23.52;39.19
72024;BME280;59889;50.700;5.440;2022-10-22T04:22:43;99541.35;;;23.23;39.25
72024;BME280;59889;50.700;5.440;2022-10-22T04:25:08;99541.47;;;23.29;39.18
72024;BME280;59889;50.700;5.440;2022-10-22T04:27:34;99543.91;;;23.26;39.20
72024;BME280;59889;50.700;5.440;2022-10-22T04:30:00;99543.64;;;23.35;39.06
72024;BME280;59889;50.700;5.440;2022-10-22T04:32:24;99545.40;;;23.46;39.23
72024;BME280;59889;50.700;5.440;2022-10-22T04:34:49;99544.66;;;23.20;39.26
72024;BME280;59889;50.700;5.440;2022-10-22T04:37:14;99546.00;;;23.75;39.15
72024;BME280;59889;50.700;5.440;2022-10-22T04:39:38;99547.76;;;23.20;39.25
72024;BME280;59889;50.700;5.440;2022-10-22T04:42:06;99548.18;;;23.22;39.19
72024;BME280;59889;50.700;5.440;2022-10-22T04:44:29;99547.80;;;23.19;39.24
72024;BME280;59889;50.700;5.440;2022-10-22T04:46:54;99546.40;;;23.21;39.21
72024;BME280;59889;50.700;5.440;2022-10-22T04:49:19;99548.17;;;23.20;39.22
72024;BME280;59889;50.700;5.440;2022-10-22T04:51:44;99550.70;;;23.23;39.17
72024;BME280;59889;50.700;5.440;2022-10-22T04:54:09;99555.65;;;23.16;39.28
72024;BME280;59889;50.700;5.440;2022-10-22T04:56:34;99555.31;;;23.17;39.25
72024;BME280;59889;50.700;5.440;2022-10-22T04:59:01;99559.26;;;23.19;39.22
72024;BME280;59889;50.700;5.440;2022-10-22T05:01:25;99561.64;;;23.20;39.21
72024;BME280;59889;50.700;5.440;2022-10-22T05:03:51;99563.40;;;23.19;39.20
72024;BME280;59889;50.700;5.440;2022-10-22T05:06:15;99562.22;;;23.19;39.21
72024;BME280;59889;50.700;5.440;2022-10-22T05:08:39;99562.47;;;23.19;39.19
72024;BME280;59889;50.700;5.440;2022-10-22T05:11:10;99559.23;;;23.68;39.18
72024;BME280;59889;50.700;5.440;2022-10-22T05:13:29;99560.35;;;23.39;39.22
72024;BME280;59889;50.700;5.440;2022-10-22T05:15:54;99559.49;;;23.63;39.22
72024;BME280;59889;50.700;5.440;2022-10-22T05:18:19;99566.15;;;23.17;39.21
72024;BME280;59889;50.700;5.440;2022-10-22T05:20:44;99566.85;;;23.41;39.20
72024;BME280;59889;50.700;5.440;2022-10-22T05:23:09;99571.99;;;23.43;39.14
72024;BME280;59889;50.700;5.440;2022-10-22T05:25:36;99576.88;;;23.16;39.18
72024;BME280;59889;50.700;5.440;2022-10-22T05:27:59;99575.85;;;23.37;39.23
72024;BME280;59889;50.700;5.440;2022-10-22T05:30:24;99572.90;;;23.60;39.24
72024;BME280;59889;50.700;5.440;2022-10-22T05:32:49;99571.08;;;23.14;39.21
72024;BME280;59889;50.700;5.440;2022-10-22T05:35:14;99569.11;;;23.10;39.26
72024;BME280;59889;50.700;5.440;2022-10-22T05:37:39;99577.14;;;23.25;39.37
72024;BME280;59889;50.700;5.440;2022-10-22T05:40:05;99574.48;;;23.36;39.22
72024;BME280;59889;50.700;5.440;2022-10-22T05:42:30;99578.97;;;23.01;39.36
72024;BME280;59889;50.700;5.440;2022-10-22T05:44:54;99580.82;;;23.11;39.23
72024;BME280;59889;50.700;5.440;2022-10-22T05:47:19;99587.15;;;23.37;39.18
72024;BME280;59889;50.700;5.440;2022-10-22T05:49:44;99590.67;;;23.10;39.21
72024;BME280;59889;50.700;5.440;2022-10-22T05:52:09;99595.79;;;23.25;39.33
72024;BME280;59889;50.700;5.440;2022-10-22T05:54:34;99598.89;;;23.36;39.17
72024;BME280;59889;50.700;5.440;2022-10-22T05:56:59;99594.97;;;23.04;39.25
72024;BME280;59889;50.700;5.440;2022-10-22T05:59:24;99596.83;;;23.31;39.21
72024;BME280;59889;50.700;5.440;2022-10-22T06:01:49;99597.51;;;23.32;39.19
72024;BME280;59889;50.700;5.440;2022-10-22T06:04:14;99604.87;;;23.12;39.15
72024;BME280;59889;50.700;5.440;2022-10-22T06:06:42;99608.02;;;23.05;39.24
72024;BME280;59889;50.700;5.440;2022-10-22T06:09:06;99612.71;;;23.56;39.21
72024;BME280;59889;50.700;5.440;2022-10-22T06:11:30;99616.08;;;23.32;39.18
72024;BME280;59889;50.700;5.440;2022-10-22T06:13:54;99617.03;;;23.02;39.26
72024;BME280;59889;50.700;5.440;2022-10-22T06:16:20;99617.43;;;23.06;39.21
72024;BME280;59889;50.700;5.440;2022-10-22T06:18:45;99621.64;;;23.30;39.20
72024;BME280;59889;50.700;5.440;2022-10-22T06:21:12;99623.97;;;23.31;39.17
72024;BME280;59889;50.700;5.440;2022-10-22T06:23:36;99624.75;;;23.10;39.11
72024;BME280;59889;50.700;5.440;2022-10-22T06:26:00;99628.46;;;23.32;39.15
72024;BME280;59889;50.700;5.440;2022-10-22T06:28:25;99629.25;;;23.07;39.13
72024;BME280;59889;50.700;5.440;2022-10-22T06:30:50;99633.46;;;23.11;39.09
72024;BME280;59889;50.700;5.440;2022-10-22T06:33:15;99634.82;;;23.09;39.13
72024;BME280;59889;50.700;5.440;2022-10-22T06:35:40;99637.40;;;23.10;39.08
72024;BME280;59889;50.700;5.440;2022-10-22T06:38:05;99639.89;;;23.03;39.17
72024;BME280;59889;50.700;5.440;2022-10-22T06:40:30;99646.65;;;23.32;39.10
72024;BME280;59889;50.700;5.440;2022-10-22T06:42:57;99647.54;;;23.34;39.06
72024;BME280;59889;50.700;5.440;2022-10-22T06:45:20;99652.86;;;23.31;39.10
72024;BME280;59889;50.700;5.440;2022-10-22T06:47:45;99658.11;;;23.06;39.11
72024;BME280;59889;50.700;5.440;2022-10-22T06:50:10;99658.19;;;23.05;39.11
72024;BME280;59889;50.700;5.440;2022-10-22T06:52:35;99663.93;;;23.10;39.04
72024;BME280;59889;50.700;5.440;2022-10-22T06:55:00;99669.28;;;23.32;39.04
72024;BME280;59889;50.700;5.440;2022-10-22T06:57:25;99673.51;;;23.27;39.13
72024;BME280;59889;50.700;5.440;2022-10-22T06:59:50;99680.78;;;22.99;39.17
72024;BME280;59889;50.700;5.440;2022-10-22T07:02:15;99686.70;;;23.04;39.10
72024;BME280;59889;50.700;5.440;2022-10-22T07:04:40;99688.54;;;23.33;39.03
72024;BME280;59889;50.700;5.440;2022-10-22T07:07:05;99695.43;;;23.03;39.11
72024;BME280;59889;50.700;5.440;2022-10-22T07:09:30;99696.67;;;23.08;39.02
72024;BME280;59889;50.700;5.440;2022-10-22T07:11:55;99699.86;;;23.37;38.95
72024;BME280;59889;50.700;5.440;2022-10-22T07:14:20;99701.55;;;23.20;38.82
72024;BME280;59889;50.700;5.440;2022-10-22T07:16:45;99709.19;;;23.17;38.88
72024;BME280;59889;50.700;5.440;2022-10-22T07:19:11;99713.74;;;23.23;38.79
72024;BME280;59889;50.700;5.440;2022-10-22T07:21:35;99716.26;;;23.27;38.71
72024;BME280;59889;50.700;5.440;2022-10-22T07:24:00;99720.51;;;23.29;38.69
72024;BME280;59889;50.700;5.440;2022-10-22T07:26:26;99724.47;;;23.22;38.79
72024;BME280;59889;50.700;5.440;2022-10-22T07:28:50;99731.38;;;23.25;38.74
72024;BME280;59889;50.700;5.440;2022-10-22T07:31:16;99736.25;;;23.34;38.62
72024;BME280;59889;50.700;5.440;2022-10-22T07:33:40;99739.32;;;23.13;38.88
72024;BME280;59889;50.700;5.440;2022-10-22T07:36:07;99739.50;;;23.56;38.63
72024;BME280;59889;50.700;5.440;2022-10-22T07:38:30;99741.23;;;23.34;38.59
72024;BME280;59889;50.700;5.440;2022-10-22T07:40:56;99746.93;;;23.29;38.61
72024;BME280;59889;50.700;5.440;2022-10-22T07:43:21;99752.02;;;23.51;38.66
72024;BME280;59889;50.700;5.440;2022-10-22T07:45:46;99755.50;;;23.20;38.75
72024;BME280;59889;50.700;5.440;2022-10-22T07:48:11;99759.69;;;23.42;38.79
72024;BME280;59889;50.700;5.440;2022-10-22T07:50:36;99763.87;;;23.13;38.85
72024;BME280;59889;50.700;5.440;2022-10-22T07:53:00;99766.13;;;23.18;38.78
72024;BME280;59889;50.700;5.440;2022-10-22T07:55:26;99767.48;;;23.30;38.91
72024;BME280;59889;50.700;5.440;2022-10-22T07:57:51;99775.05;;;23.15;38.84
72024;BME280;59889;50.700;5.440;2022-10-22T08:00:16;99776.39;;;23.11;38.86
72024;BME280;59889;50.700;5.440;2022-10-22T08:02:41;99780.21;;;23.37;38.83
72024;BME280;59889;50.700;5.440;2022-10-22T08:05:07;99784.61;;;23.23;38.71
72024;BME280;59889;50.700;5.440;2022-10-22T08:07:31;99789.77;;;23.42;38.75
72024;BME280;59889;50.700;5.440;2022-10-22T08:09:56;99797.27;;;23.35;38.85
72024;BME280;59889;50.700;5.440;2022-10-22T08:12:21;99798.78;;;23.19;38.73
72024;BME280;59889;50.700;5.440;2022-10-22T08:14:46;99803.03;;;23.03;38.95
72024;BME280;59889;50.700;5.440;2022-10-22T08:17:11;99804.99;;;23.31;38.89
72024;BME280;59889;50.700;5.440;2022-10-22T08:19:36;99807.52;;;23.13;38.84
72024;BME280;59889;50.700;5.440;2022-10-22T08:22:01;99807.69;;;23.13;38.78
72024;BME280;59889;50.700;5.440;2022-10-22T08:24:26;99809.13;;;23.30;38.89
72024;BME280;59889;50.700;5.440;2022-10-22T08:26:51;99809.01;;;22.95;39.04
72024;BME280;59889;50.700;5.440;2022-10-22T08:29:16;99811.27;;;23.34;38.84
72024;BME280;59889;50.700;5.440;2022-10-22T08:31:41;99809.83;;;23.10;38.82
72024;BME280;59889;50.700;5.440;2022-10-22T08:34:06;99813.95;;;23.35;38.79
72024;BME280;59889;50.700;5.440;2022-10-22T08:36:31;99818.14;;;23.06;38.85
72024;BME280;59889;50.700;5.440;2022-10-22T08:38:56;99820.19;;;23.39;38.71
72024;BME280;59889;50.700;5.440;2022-10-22T08:41:23;99820.50;;;23.18;38.67
72024;BME280;59889;50.700;5.440;2022-10-22T08:44:01;99824.45;;;23.16;38.72
72024;BME280;59889;50.700;5.440;2022-10-22T08:46:24;99827.48;;;23.68;38.64
72024;BME280;59889;50.700;5.440;2022-10-22T08:48:42;99832.48;;;23.43;38.64
72024;BME280;59889;50.700;5.440;2022-10-22T08:51:02;99833.92;;;23.64;38.68
72024;BME280;59889;50.700;5.440;2022-10-22T08:53:31;99831.18;;;23.22;38.59
72024;BME280;59889;50.700;5.440;2022-10-22T08:55:53;99834.91;;;23.48;38.57
72024;BME280;59889;50.700;5.440;2022-10-22T08:58:21;99836.23;;;23.14;38.67
72024;BME280;59889;50.700;5.440;2022-10-22T09:00:44;99838.90;;;23.21;38.60
72024;BME280;59889;50.700;5.440;2022-10-22T09:03:21;99846.32;;;23.23;38.57
72024;BME280;59889;50.700;5.440;2022-10-22T09:05:40;99854.06;;;22.91;38.69
72024;BME280;59889;50.700;5.440;2022-10-22T09:07:57;99853.32;;;23.13;38.73
72024;BME280;59889;50.700;5.440;2022-10-22T09:10:26;99859.00;;;23.21;38.58
72024;BME280;59889;50.700;5.440;2022-10-22T09:12:47;99860.05;;;23.50;38.84
72024;BME280;59889;50.700;5.440;2022-10-22T09:15:13;99863.61;;;23.66;38.63
72024;BME280;59889;50.700;5.440;2022-10-22T09:17:43;99867.81;;;23.31;38.77
72024;BME280;59889;50.700;5.440;2022-10-22T09:20:10;99865.17;;;23.13;38.70
72024;BME280;59889;50.700;5.440;2022-10-22T09:22:33;99863.81;;;23.31;38.78
72024;BME280;59889;50.700;5.440;2022-10-22T09:24:55;99872.13;;;23.37;38.70
72024;BME280;59889;50.700;5.440;2022-10-22T09:27:19;99876.13;;;23.14;38.67
72024;BME280;59889;50.700;5.440;2022-10-22T09:29:43;99880.86;;;23.18;38.63
72024;BME280;59889;50.700;5.440;2022-10-22T09:32:07;99879.96;;;23.41;38.63
72024;BME280;59889;50.700;5.440;2022-10-22T09:34:32;99885.24;;;23.35;38.69
72024;BME280;59889;50.700;5.440;2022-10-22T09:36:59;99884.84;;;23.04;38.80
72024;BME280;59889;50.700;5.440;2022-10-22T09:39:24;99884.59;;;23.57;38.71
72024;BME280;59889;50.700;5.440;2022-10-22T09:41:48;99885.93;;;23.15;38.64
72024;BME280;59889;50.700;5.440;2022-10-22T09:44:12;99891.66;;;23.38;38.66
72024;BME280;59889;50.700;5.440;2022-10-22T09:46:38;99894.18;;;23.11;38.69
72024;BME280;59889;50.700;5.440;2022-10-22T09:49:08;99892.79;;;23.41;38.60
72024;BME280;59889;50.700;5.440;2022-10-22T09:51:36;99893.17;;;23.30;38.76
72024;BME280;59889;50.700;5.440;2022-10-22T09:53:56;99898.29;;;23.11;38.70
72024;BME280;59889;50.700;5.440;2022-10-22T09:56:24;99901.72;;;23.35;38.69
72024;BME280;59889;50.700;5.440;2022-10-22T09:58:44;99903.21;;;23.13;38.67
72024;BME280;59889;50.700;5.440;2022-10-22T10:01:15;99903.24;;;23.03;38.80
72024;BME280;59889;50.700;5.440;2022-10-22T10:03:33;99904.66;;;23.05;38.77
72024;BME280;59889;50.700;5.440;2022-10-22T10:05:59;99906.13;;;23.13;38.70
72024;BME280;59889;50.700;5.440;2022-10-22T10:08:23;99907.96;;;23.09;38.73
72024;BME280;59889;50.700;5.440;2022-10-22T10:10:51;99911.83;;;23.35;38.70
72024;BME280;59889;50.700;5.440;2022-10-22T10:13:24;99914.64;;;23.63;38.63
72024;BME280;59889;50.700;5.440;2022-10-22T10:15:45;99921.32;;;23.09;38.71
72024;BME280;59889;50.700;5.440;2022-10-22T10:18:08;99922.82;;;23.14;38.65
72024;BME280;59889;50.700;5.440;2022-10-22T10:20:35;99926.27;;;23.13;38.64
72024;BME280;59889;50.700;5.440;2022-10-22T10:22:58;99935.48;;;23.17;38.60
72024;BME280;59889;50.700;5.440;2022-10-22T10:25:29;99943.73;;;23.11;38.67
72024;BME280;59889;50.700;5.440;2022-10-22T10:27:47;99945.32;;;23.16;38.59
72024;BME280;59889;50.700;5.440;2022-10-22T10:30:11;99950.08;;;23.15;38.60
72024;BME280;59889;50.700;5.440;2022-10-22T10:35:08;99952.15;;;23.36;38.65
72024;BME280;59889;50.700;5.440;2022-10-22T10:37:26;99952.05;;;23.58;38.66
72024;BME280;59889;50.700;5.440;2022-10-22T10:40:04;99949.94;;;23.15;38.60
72024;BME280;59889;50.700;5.440;2022-10-22T10:42:19;99952.16;;;23.19;38.55
72024;BME280;59889;50.700;5.440;2022-10-22T10:44:51;99958.95;;;23.12;38.64
72024;BME280;59889;50.700;5.440;2022-10-22T10:47:12;99957.21;;;23.41;38.56
72024;BME280;59889;50.700;5.440;2022-10-22T10:49:31;99958.69;;;23.10;38.65
72024;BME280;59889;50.700;5.440;2022-10-22T10:52:00;99956.45;;;23.39;38.60
72024;BME280;59889;50.700;5.440;2022-10-22T10:54:32;99955.18;;;23.37;38.62
72024;BME280;59889;50.700;5.440;2022-10-22T10:56:46;99952.64;;;23.18;38.56
72024;BME280;59889;50.700;5.440;2022-10-22T10:59:15;99956.09;;;23.34;38.67
72024;BME280;59889;50.700;5.440;2022-10-22T11:01:36;99953.23;;;23.17;38.59
72024;BME280;59889;50.700;5.440;2022-10-22T11:06:36;99949.37;;;23.31;38.71
72024;BME280;59889;50.700;5.440;2022-10-22T11:08:53;99947.32;;;23.19;38.54
72024;BME280;59889;50.700;5.440;2022-10-22T11:11:16;99948.20;;;23.67;38.55
72024;BME280;59889;50.700;5.440;2022-10-22T11:13:43;99950.92;;;23.18;38.55
72024;BME280;59889;50.700;5.440;2022-10-22T11:16:10;99947.69;;;22.98;38.49
72024;BME280;59889;50.700;5.440;2022-10-22T11:18:31;99944.43;;;23.30;38.72
72024;BME280;59889;50.700;5.440;2022-10-22T11:21:03;99941.32;;;23.15;38.59
72024;BME280;59889;50.700;5.440;2022-10-22T11:23:26;99938.35;;;23.16;38.59
72024;BME280;59889;50.700;5.440;2022-10-22T11:25:46;99935.99;;;23.16;38.58
72024;BME280;59889;50.700;5.440;2022-10-22T11:28:13;99933.96;;;23.16;38.58
72024;BME280;59889;50.700;5.440;2022-10-22T11:30:34;99931.66;;;23.34;38.66
72024;BME280;59889;50.700;5.440;2022-10-22T11:33:02;99922.95;;;23.21;38.51
72024;BME280;59889;50.700;5.440;2022-10-22T11:35:27;99925.72;;;23.34;38.68
72024;BME280;59889;50.700;5.440;2022-10-22T11:37:49;99918.12;;;23.19;38.53
72024;BME280;59889;50.700;5.440;2022-10-22T11:40:18;99917.83;;;23.26;38.44
72024;BME280;59889;50.700;5.440;2022-10-22T11:42:44;99916.17;;;23.46;38.49
72024;BME280;59889;50.700;5.440;2022-10-22T11:45:22;99912.79;;;23.46;38.48
72024;BME280;59889;50.700;5.440;2022-10-22T11:47:33;99912.56;;;23.59;38.61
72024;BME280;59889;50.700;5.440;2022-10-22T11:49:57;99912.36;;;23.41;38.53
72024;BME280;59889;50.700;5.440;2022-10-22T11:52:25;99917.09;;;23.16;38.56
72024;BME280;59889;50.700;5.440;2022-10-22T11:54:44;99924.27;;;23.36;38.64
72024;BME280;59889;50.700;5.440;2022-10-22T11:57:18;99919.29;;;23.13;38.62
72024;BME280;59889;50.700;5.440;2022-10-22T11:59:39;99922.13;;;23.32;38.68
72024;BME280;59889;50.700;5.440;2022-10-22T12:01:59;99921.21;;;23.33;38.66
72024;BME280;59889;50.700;5.440;2022-10-22T12:06:54;99923.79;;;23.06;38.71
72024;BME280;59889;50.700;5.440;2022-10-22T12:09:17;99921.75;;;23.39;38.59
72024;BME280;59889;50.700;5.440;2022-10-22T12:11:44;99923.34;;;23.62;38.59
72024;BME280;59889;50.700;5.440;2022-10-22T12:14:16;99919.91;;;23.15;38.56
72024;BME280;59889;50.700;5.440;2022-10-22T12:16:35;99919.53;;;23.24;38.44
72024;BME280;59889;50.700;5.440;2022-10-22T12:18:59;99918.56;;;23.39;38.56
72024;BME280;59889;50.700;5.440;2022-10-22T12:21:19;99918.98;;;23.15;38.56
72024;BME280;59889;50.700;5.440;2022-10-22T12:23:44;99915.37;;;23.19;38.49
72024;BME280;59889;50.700;5.440;2022-10-22T12:26:21;99916.69;;;23.13;38.56
72024;BME280;59889;50.700;5.440;2022-10-22T12:28:39;99914.54;;;23.09;38.60
72024;BME280;59889;50.700;5.440;2022-10-22T12:30:59;99911.58;;;23.42;38.48
72024;BME280;59889;50.700;5.440;2022-10-22T12:33:24;99909.83;;;23.17;38.50
72024;BME280;59889;50.700;5.440;2022-10-22T12:35:50;99907.24;;;23.16;38.51
72024;BME280;59889;50.700;5.440;2022-10-22T12:38:16;99905.88;;;23.46;38.42
72024;BME280;59889;50.700;5.440;2022-10-22T12:40:40;99909.52;;;23.49;38.37
72024;BME280;59889;50.700;5.440;2022-10-22T12:43:10;99914.93;;;23.23;38.39
72024;BME280;59889;50.700;5.440;2022-10-22T12:45:32;99913.29;;;23.44;38.42
72024;BME280;59889;50.700;5.440;2022-10-22T12:47:57;99907.79;;;23.17;38.50
72024;BME280;59889;50.700;5.440;2022-10-22T12:50:22;99904.33;;;23.18;38.47
72024;BME280;59889;50.700;5.440;2022-10-22T12:52:45;99905.78;;;23.39;38.51
72024;BME280;59889;50.700;5.440;2022-10-22T12:55:14;99906.67;;;23.43;38.49